sensor_id;sensor_type;location;lat;lon;timestamp;P1;durP1;ratioP1;P2;durP2;ratioP2
10643;SDS011;5370;50.132;8.626;2022-08-03T00:01:15;4.43;;;3.08;;
10643;SDS011;5370;50.132;8.626;2022-08-03T00:03:41;5.35;;;3.15;;
10643;SDS011;5370;50.132;8.626;2022-08-03T00:06:07;5.45;;;2.75;;
10643;SDS011;5370;50.132;8.626;2022-08-03T00:08:33;5.47;;;3.15;;
10643;SDS011;5370;50.132;8.626;2022-08-03T00:10:59;2.80;;;2.38;;
10643;SDS011;5370;50.132;8.626;2022-08-03T00:13:24;5.57;;;2.85;;
10643;SDS011;5370;50.132;8.626;2022-08-03T00:15:50;2.75;;;2.55;;
10643;SDS011;5370;50.132;8.626;2022-08-03T00:18:16;3.15;;;2.45;;
10643;SDS011;5370;50.132;8.626;2022-08-03T00:20:42;4.45;;;2.80;;
10643;SDS011;5370;50.132;8.626;2022-08-03T00:23:08;3.13;;;2.83;;
10643;SDS011;5370;50.132;8.626;2022-08-03T00:25:34;9.02;;;3.17;;
10643;SDS011;5370;50.132;8.626;2022-08-03T00:28:01;4.68;;;2.80;;
10643;SDS011;5370;50.132;8.626;2022-08-03T00:30:27;3.53;;;2.30;;
10643;SDS011;5370;50.132;8.626;2022-08-03T00:32:53;3.88;;;2.45;;
10643;SDS011;5370;50.132;8.626;2022-08-03T00:35:19;5.72;;;2.70;;
10643;SDS011;5370;50.132;8.626;2022-08-03T00:37:45;3.38;;;2.80;;
10643;SDS011;5370;50.132;8.626;2022-08-03T00:40:11;3.22;;;2.72;;
10643;SDS011;5370;50.132;8.626;2022-08-03T00:42:45;3.17;;;2.88;;
10643;SDS011;5370;50.132;8.626;2022-08-03T00:45:16;3.30;;;2.58;;
10643;SDS011;5370;50.132;8.626;2022-08-03T00:47:42;3.17;;;2.40;;
10643;SDS011;5370;50.132;8.626;2022-08-03T00:50:08;3.53;;;2.80;;
10643;SDS011;5370;50.132;8.626;2022-08-03T00:52:34;3.35;;;2.55;;
10643;SDS011;5370;50.132;8.626;2022-08-03T00:55:00;3.17;;;2.35;;
10643;SDS011;5370;50.132;8.626;2022-08-03T00:57:28;4.63;;;2.80;;
10643;SDS011;5370;50.132;8.626;2022-08-03T00:59:55;4.03;;;2.67;;
10643;SDS011;5370;50.132;8.626;2022-08-03T01:02:21;3.42;;;2.65;;
10643;SDS011;5370;50.132;8.626;2022-08-03T01:04:47;4.40;;;2.90;;
10643;SDS011;5370;50.132;8.626;2022-08-03T01:09:59;3.28;;;2.88;;
10643;SDS011;5370;50.132;8.626;2022-08-03T01:12:37;8.07;;;3.25;;
10643;SDS011;5370;50.132;8.626;2022-08-03T01:17:56;3.30;;;2.50;;
10643;SDS011;5370;50.132;8.626;2022-08-03T01:20:30;4.07;;;2.85;;
10643;SDS011;5370;50.132;8.626;2022-08-03T01:25:59;3.55;;;2.63;;
10643;SDS011;5370;50.132;8.626;2022-08-03T01:28:49;3.33;;;2.80;;
10643;SDS011;5370;50.132;8.626;2022-08-03T01:31:21;5.10;;;2.85;;
10643;SDS011;5370;50.132;8.626;2022-08-03T01:33:54;6.53;;;2.67;;
10643;SDS011;5370;50.132;8.626;2022-08-03T01:36:23;3.95;;;2.90;;
10643;SDS011;5370;50.132;8.626;2022-08-03T01:38:54;4.93;;;2.60;;
10643;SDS011;5370;50.132;8.626;2022-08-03T01:41:25;2.53;;;2.17;;
10643;SDS011;5370;50.132;8.626;2022-08-03T01:43:57;3.03;;;2.60;;
10643;SDS011;5370;50.132;8.626;2022-08-03T01:46:25;4.97;;;2.50;;
10643;SDS011;5370;50.132;8.626;2022-08-03T01:48:52;2.60;;;2.40;;
10643;SDS011;5370;50.132;8.626;2022-08-03T01:51:20;4.55;;;2.45;;
10643;SDS011;5370;50.132;8.626;2022-08-03T01:53:47;2.58;;;2.38;;
10643;SDS011;5370;50.132;8.626;2022-08-03T01:56:15;2.67;;;2.47;;
10643;SDS011;5370;50.132;8.626;2022-08-03T01:58:43;4.68;;;2.67;;
10643;SDS011;5370;50.132;8.626;2022-08-03T02:01:12;3.78;;;2.42;;
10643;SDS011;5370;50.132;8.626;2022-08-03T02:03:40;3.65;;;2.78;;
10643;SDS011;5370;50.132;8.626;2022-08-03T02:06:11;3.03;;;2.40;;
10643;SDS011;5370;50.132;8.626;2022-08-03T02:08:38;4.13;;;2.60;;
10643;SDS011;5370;50.132;8.626;2022-08-03T02:11:05;3.05;;;2.20;;
10643;SDS011;5370;50.132;8.626;2022-08-03T02:13:32;2.88;;;2.63;;
10643;SDS011;5370;50.132;8.626;2022-08-03T02:15:58;4.15;;;2.35;;
10643;SDS011;5370;50.132;8.626;2022-08-03T02:18:26;4.72;;;2.90;;
10643;SDS011;5370;50.132;8.626;2022-08-03T02:20:54;5.40;;;2.63;;
10643;SDS011;5370;50.132;8.626;2022-08-03T02:23:20;5.78;;;2.33;;
10643;SDS011;5370;50.132;8.626;2022-08-03T02:25:52;4.18;;;2.80;;
10643;SDS011;5370;50.132;8.626;2022-08-03T02:28:22;3.70;;;2.33;;
10643;SDS011;5370;50.132;8.626;2022-08-03T02:30:53;3.25;;;2.95;;
10643;SDS011;5370;50.132;8.626;2022-08-03T02:33:25;5.47;;;2.40;;
10643;SDS011;5370;50.132;8.626;2022-08-03T02:35:54;7.97;;;2.72;;
10643;SDS011;5370;50.132;8.626;2022-08-03T02:38:22;5.43;;;2.80;;
10643;SDS011;5370;50.132;8.626;2022-08-03T02:40:55;2.95;;;2.75;;
10643;SDS011;5370;50.132;8.626;2022-08-03T02:43:22;3.10;;;2.72;;
10643;SDS011;5370;50.132;8.626;2022-08-03T02:45:49;3.08;;;2.65;;
10643;SDS011;5370;50.132;8.626;2022-08-03T02:48:17;3.58;;;2.40;;
10643;SDS011;5370;50.132;8.626;2022-08-03T02:50:47;3.83;;;2.92;;
10643;SDS011;5370;50.132;8.626;2022-08-03T02:53:16;2.85;;;2.47;;
10643;SDS011;5370;50.132;8.626;2022-08-03T02:55:43;3.28;;;2.70;;
10643;SDS011;5370;50.132;8.626;2022-08-03T02:58:12;2.95;;;2.60;;
10643;SDS011;5370;50.132;8.626;2022-08-03T03:00:38;6.07;;;2.92;;
10643;SDS011;5370;50.132;8.626;2022-08-03T03:03:05;3.47;;;3.05;;
10643;SDS011;5370;50.132;8.626;2022-08-03T03:05:33;3.30;;;3.00;;
10643;SDS011;5370;50.132;8.626;2022-08-03T03:08:00;6.13;;;3.17;;
10643;SDS011;5370;50.132;8.626;2022-08-03T03:10:26;4.15;;;3.05;;
10643;SDS011;5370;50.132;8.626;2022-08-03T03:12:54;5.88;;;2.80;;
10643;SDS011;5370;50.132;8.626;2022-08-03T03:15:21;3.55;;;3.17;;
10643;SDS011;5370;50.132;8.626;2022-08-03T03:17:49;4.35;;;2.50;;
10643;SDS011;5370;50.132;8.626;2022-08-03T03:20:17;3.45;;;2.70;;
10643;SDS011;5370;50.132;8.626;2022-08-03T03:22:44;6.07;;;3.30;;
10643;SDS011;5370;50.132;8.626;2022-08-03T03:25:13;5.53;;;3.15;;
10643;SDS011;5370;50.132;8.626;2022-08-03T03:27:39;4.50;;;2.88;;
10643;SDS011;5370;50.132;8.626;2022-08-03T03:30:05;4.63;;;3.30;;
10643;SDS011;5370;50.132;8.626;2022-08-03T03:32:31;4.60;;;2.83;;
10643;SDS011;5370;50.132;8.626;2022-08-03T03:34:56;2.90;;;2.58;;
10643;SDS011;5370;50.132;8.626;2022-08-03T03:37:23;5.18;;;3.13;;
10643;SDS011;5370;50.132;8.626;2022-08-03T03:39:50;6.50;;;3.75;;
10643;SDS011;5370;50.132;8.626;2022-08-03T03:42:17;4.35;;;3.30;;
10643;SDS011;5370;50.132;8.626;2022-08-03T03:44:43;3.67;;;3.13;;
10643;SDS011;5370;50.132;8.626;2022-08-03T03:47:09;3.50;;;3.20;;
10643;SDS011;5370;50.132;8.626;2022-08-03T03:49:35;3.67;;;3.35;;
10643;SDS011;5370;50.132;8.626;2022-08-03T03:52:01;4.38;;;3.20;;
10643;SDS011;5370;50.132;8.626;2022-08-03T03:54:37;3.45;;;3.15;;
10643;SDS011;5370;50.132;8.626;2022-08-03T03:57:07;7.18;;;3.28;;
10643;SDS011;5370;50.132;8.626;2022-08-03T03:59:36;5.00;;;3.65;;
10643;SDS011;5370;50.132;8.626;2022-08-03T04:02:03;4.90;;;3.38;;
10643;SDS011;5370;50.132;8.626;2022-08-03T04:04:30;4.03;;;3.50;;
10643;SDS011;5370;50.132;8.626;2022-08-03T04:07:16;5.78;;;3.25;;
10643;SDS011;5370;50.132;8.626;2022-08-03T04:10:01;5.95;;;2.97;;
10643;SDS011;5370;50.132;8.626;2022-08-03T04:12:47;3.92;;;3.22;;
10643;SDS011;5370;50.132;8.626;2022-08-03T04:15:20;3.83;;;3.13;;
10643;SDS011;5370;50.132;8.626;2022-08-03T04:17:47;7.55;;;3.63;;
10643;SDS011;5370;50.132;8.626;2022-08-03T04:20:16;5.07;;;3.22;;
10643;SDS011;5370;50.132;8.626;2022-08-03T04:22:44;5.30;;;3.03;;
10643;SDS011;5370;50.132;8.626;2022-08-03T04:25:12;3.13;;;2.88;;
10643;SDS011;5370;50.132;8.626;2022-08-03T04:27:42;7.10;;;3.35;;
10643;SDS011;5370;50.132;8.626;2022-08-03T04:30:08;8.98;;;3.75;;
10643;SDS011;5370;50.132;8.626;2022-08-03T04:32:35;4.22;;;3.47;;
10643;SDS011;5370;50.132;8.626;2022-08-03T04:35:02;4.57;;;3.05;;
10643;SDS011;5370;50.132;8.626;2022-08-03T04:37:34;4.70;;;3.58;;
10643;SDS011;5370;50.132;8.626;2022-08-03T04:40:07;7.22;;;3.25;;
10643;SDS011;5370;50.132;8.626;2022-08-03T04:42:37;3.72;;;3.30;;
10643;SDS011;5370;50.132;8.626;2022-08-03T04:45:04;3.50;;;3.20;;
10643;SDS011;5370;50.132;8.626;2022-08-03T04:47:31;6.15;;;3.78;;
10643;SDS011;5370;50.132;8.626;2022-08-03T04:49:59;4.93;;;3.40;;
10643;SDS011;5370;50.132;8.626;2022-08-03T04:52:26;5.32;;;3.17;;
10643;SDS011;5370;50.132;8.626;2022-08-03T04:54:51;8.93;;;3.97;;
10643;SDS011;5370;50.132;8.626;2022-08-03T04:57:17;6.35;;;3.75;;
10643;SDS011;5370;50.132;8.626;2022-08-03T04:59:43;6.22;;;3.22;;
10643;SDS011;5370;50.132;8.626;2022-08-03T05:02:09;4.85;;;3.28;;
10643;SDS011;5370;50.132;8.626;2022-08-03T05:04:34;7.05;;;3.58;;
10643;SDS011;5370;50.132;8.626;2022-08-03T05:07:02;7.60;;;3.97;;
10643;SDS011;5370;50.132;8.626;2022-08-03T05:09:27;8.18;;;4.07;;
10643;SDS011;5370;50.132;8.626;2022-08-03T05:11:53;6.05;;;3.35;;
10643;SDS011;5370;50.132;8.626;2022-08-03T05:14:19;4.88;;;2.95;;
10643;SDS011;5370;50.132;8.626;2022-08-03T05:16:45;7.40;;;3.50;;
10643;SDS011;5370;50.132;8.626;2022-08-03T05:19:10;3.65;;;3.35;;
10643;SDS011;5370;50.132;8.626;2022-08-03T05:21:36;3.45;;;3.00;;
10643;SDS011;5370;50.132;8.626;2022-08-03T05:24:01;7.10;;;3.78;;
10643;SDS011;5370;50.132;8.626;2022-08-03T05:26:27;3.95;;;3.40;;
10643;SDS011;5370;50.132;8.626;2022-08-03T05:28:53;8.18;;;3.60;;
10643;SDS011;5370;50.132;8.626;2022-08-03T05:31:18;4.72;;;3.40;;
10643;SDS011;5370;50.132;8.626;2022-08-03T05:33:44;4.38;;;3.30;;
10643;SDS011;5370;50.132;8.626;2022-08-03T05:36:10;8.15;;;2.70;;
10643;SDS011;5370;50.132;8.626;2022-08-03T05:38:35;9.55;;;3.10;;
10643;SDS011;5370;50.132;8.626;2022-08-03T05:41:04;6.47;;;3.35;;
10643;SDS011;5370;50.132;8.626;2022-08-03T05:43:30;6.07;;;3.10;;
10643;SDS011;5370;50.132;8.626;2022-08-03T05:45:56;8.73;;;3.63;;
10643;SDS011;5370;50.132;8.626;2022-08-03T05:48:22;4.63;;;3.10;;
10643;SDS011;5370;50.132;8.626;2022-08-03T05:50:48;6.60;;;3.03;;
10643;SDS011;5370;50.132;8.626;2022-08-03T05:53:13;8.23;;;3.13;;
10643;SDS011;5370;50.132;8.626;2022-08-03T05:55:39;11.90;;;3.22;;
10643;SDS011;5370;50.132;8.626;2022-08-03T05:58:04;6.93;;;3.30;;
10643;SDS011;5370;50.132;8.626;2022-08-03T06:00:30;5.05;;;2.95;;
10643;SDS011;5370;50.132;8.626;2022-08-03T06:02:55;9.77;;;3.42;;
10643;SDS011;5370;50.132;8.626;2022-08-03T06:05:21;6.28;;;3.10;;
10643;SDS011;5370;50.132;8.626;2022-08-03T06:07:46;10.07;;;3.60;;
10643;SDS011;5370;50.132;8.626;2022-08-03T06:10:12;6.30;;;2.97;;
10643;SDS011;5370;50.132;8.626;2022-08-03T06:12:38;6.10;;;3.20;;
10643;SDS011;5370;50.132;8.626;2022-08-03T06:15:05;6.45;;;3.40;;
10643;SDS011;5370;50.132;8.626;2022-08-03T06:17:31;4.93;;;3.13;;
10643;SDS011;5370;50.132;8.626;2022-08-03T06:19:57;9.68;;;3.60;;
10643;SDS011;5370;50.132;8.626;2022-08-03T06:22:22;8.82;;;3.35;;
10643;SDS011;5370;50.132;8.626;2022-08-03T06:24:48;4.38;;;3.28;;
10643;SDS011;5370;50.132;8.626;2022-08-03T06:27:13;3.78;;;2.95;;
10643;SDS011;5370;50.132;8.626;2022-08-03T06:29:39;3.80;;;3.22;;
10643;SDS011;5370;50.132;8.626;2022-08-03T06:32:04;5.75;;;2.70;;
10643;SDS011;5370;50.132;8.626;2022-08-03T06:34:30;3.50;;;2.42;;
10643;SDS011;5370;50.132;8.626;2022-08-03T06:36:55;5.90;;;2.67;;
10643;SDS011;5370;50.132;8.626;2022-08-03T06:39:21;6.82;;;2.40;;
10643;SDS011;5370;50.132;8.626;2022-08-03T06:41:47;4.53;;;2.65;;
10643;SDS011;5370;50.132;8.626;2022-08-03T06:44:12;4.18;;;2.47;;
10643;SDS011;5370;50.132;8.626;2022-08-03T06:46:38;2.95;;;2.28;;
10643;SDS011;5370;50.132;8.626;2022-08-03T06:49:03;3.30;;;3.00;;
10643;SDS011;5370;50.132;8.626;2022-08-03T06:51:30;2.90;;;2.60;;
10643;SDS011;5370;50.132;8.626;2022-08-03T06:53:56;7.15;;;2.90;;
10643;SDS011;5370;50.132;8.626;2022-08-03T06:56:21;6.00;;;2.72;;
10643;SDS011;5370;50.132;8.626;2022-08-03T06:58:47;7.00;;;2.65;;
10643;SDS011;5370;50.132;8.626;2022-08-03T07:01:13;3.00;;;2.33;;
10643;SDS011;5370;50.132;8.626;2022-08-03T07:03:38;7.85;;;2.50;;
10643;SDS011;5370;50.132;8.626;2022-08-03T07:06:04;6.70;;;2.42;;
10643;SDS011;5370;50.132;8.626;2022-08-03T07:08:30;7.88;;;2.60;;
10643;SDS011;5370;50.132;8.626;2022-08-03T07:10:56;6.10;;;2.65;;
10643;SDS011;5370;50.132;8.626;2022-08-03T07:13:21;3.92;;;2.53;;
10643;SDS011;5370;50.132;8.626;2022-08-03T07:15:47;2.83;;;2.15;;
10643;SDS011;5370;50.132;8.626;2022-08-03T07:18:13;6.50;;;2.63;;
10643;SDS011;5370;50.132;8.626;2022-08-03T07:20:38;5.88;;;2.63;;
10643;SDS011;5370;50.132;8.626;2022-08-03T07:23:04;5.88;;;2.40;;
10643;SDS011;5370;50.132;8.626;2022-08-03T07:25:30;4.72;;;1.98;;
10643;SDS011;5370;50.132;8.626;2022-08-03T07:27:56;4.13;;;2.30;;
10643;SDS011;5370;50.132;8.626;2022-08-03T07:30:21;4.50;;;2.17;;
10643;SDS011;5370;50.132;8.626;2022-08-03T07:32:47;5.70;;;2.13;;
10643;SDS011;5370;50.132;8.626;2022-08-03T07:35:12;7.28;;;2.38;;
10643;SDS011;5370;50.132;8.626;2022-08-03T07:37:38;3.35;;;1.83;;
10643;SDS011;5370;50.132;8.626;2022-08-03T07:40:06;4.20;;;2.25;;
10643;SDS011;5370;50.132;8.626;2022-08-03T07:42:32;2.35;;;1.88;;
10643;SDS011;5370;50.132;8.626;2022-08-03T07:44:58;4.32;;;2.47;;
10643;SDS011;5370;50.132;8.626;2022-08-03T07:47:28;3.35;;;2.10;;
10643;SDS011;5370;50.132;8.626;2022-08-03T07:49:54;5.72;;;2.08;;
10643;SDS011;5370;50.132;8.626;2022-08-03T07:52:21;6.15;;;2.10;;
10643;SDS011;5370;50.132;8.626;2022-08-03T07:55:05;3.95;;;1.98;;
10643;SDS011;5370;50.132;8.626;2022-08-03T07:57:32;2.50;;;1.83;;
10643;SDS011;5370;50.132;8.626;2022-08-03T07:59:58;3.88;;;1.92;;
10643;SDS011;5370;50.132;8.626;2022-08-03T08:02:23;6.70;;;2.25;;
10643;SDS011;5370;50.132;8.626;2022-08-03T08:04:49;7.68;;;2.28;;
10643;SDS011;5370;50.132;8.626;2022-08-03T08:07:15;3.10;;;1.90;;
10643;SDS011;5370;50.132;8.626;2022-08-03T08:09:41;5.30;;;2.20;;
10643;SDS011;5370;50.132;8.626;2022-08-03T08:12:06;6.70;;;1.60;;
10643;SDS011;5370;50.132;8.626;2022-08-03T08:14:33;4.68;;;2.13;;
10643;SDS011;5370;50.132;8.626;2022-08-03T08:16:59;4.72;;;1.75;;
10643;SDS011;5370;50.132;8.626;2022-08-03T08:19:25;7.00;;;1.90;;
10643;SDS011;5370;50.132;8.626;2022-08-03T08:21:51;3.80;;;2.00;;
10643;SDS011;5370;50.132;8.626;2022-08-03T08:24:16;5.03;;;1.70;;
10643;SDS011;5370;50.132;8.626;2022-08-03T08:26:42;4.53;;;1.50;;
10643;SDS011;5370;50.132;8.626;2022-08-03T08:29:07;3.60;;;2.13;;
10643;SDS011;5370;50.132;8.626;2022-08-03T08:31:33;2.55;;;1.90;;
10643;SDS011;5370;50.132;8.626;2022-08-03T08:33:58;6.97;;;2.00;;
10643;SDS011;5370;50.132;8.626;2022-08-03T08:36:29;3.22;;;1.75;;
10643;SDS011;5370;50.132;8.626;2022-08-03T08:38:56;5.22;;;1.80;;
10643;SDS011;5370;50.132;8.626;2022-08-03T08:41:21;3.90;;;1.73;;
10643;SDS011;5370;50.132;8.626;2022-08-03T08:43:47;4.57;;;1.95;;
10643;SDS011;5370;50.132;8.626;2022-08-03T08:46:12;2.60;;;1.50;;
10643;SDS011;5370;50.132;8.626;2022-08-03T08:48:40;2.97;;;1.67;;
10643;SDS011;5370;50.132;8.626;2022-08-03T08:51:07;5.15;;;1.67;;
10643;SDS011;5370;50.132;8.626;2022-08-03T08:53:35;3.80;;;1.30;;
10643;SDS011;5370;50.132;8.626;2022-08-03T08:56:02;2.00;;;1.60;;
10643;SDS011;5370;50.132;8.626;2022-08-03T08:58:29;3.00;;;1.63;;
10643;SDS011;5370;50.132;8.626;2022-08-03T09:01:00;3.88;;;1.50;;
10643;SDS011;5370;50.132;8.626;2022-08-03T09:03:26;3.15;;;1.48;;
10643;SDS011;5370;50.132;8.626;2022-08-03T09:05:52;1.83;;;1.65;;
10643;SDS011;5370;50.132;8.626;2022-08-03T09:08:18;3.03;;;1.70;;
10643;SDS011;5370;50.132;8.626;2022-08-03T09:10:45;2.80;;;1.65;;
10643;SDS011;5370;50.132;8.626;2022-08-03T09:13:11;6.93;;;2.03;;
10643;SDS011;5370;50.132;8.626;2022-08-03T09:15:37;3.35;;;2.00;;
10643;SDS011;5370;50.132;8.626;2022-08-03T09:18:03;4.03;;;2.00;;
10643;SDS011;5370;50.132;8.626;2022-08-03T09:20:31;2.38;;;1.65;;
10643;SDS011;5370;50.132;8.626;2022-08-03T09:25:29;7.35;;;1.95;;
10643;SDS011;5370;50.132;8.626;2022-08-03T09:28:03;7.13;;;2.47;;
10643;SDS011;5370;50.132;8.626;2022-08-03T09:30:29;6.13;;;2.22;;
10643;SDS011;5370;50.132;8.626;2022-08-03T09:33:01;3.80;;;2.10;;
10643;SDS011;5370;50.132;8.626;2022-08-03T09:35:30;4.97;;;2.20;;
10643;SDS011;5370;50.132;8.626;2022-08-03T09:40:54;1.83;;;1.70;;
10643;SDS011;5370;50.132;8.626;2022-08-03T09:43:21;1.75;;;1.50;;
10643;SDS011;5370;50.132;8.626;2022-08-03T09:45:49;4.55;;;2.00;;
10643;SDS011;5370;50.132;8.626;2022-08-03T09:48:26;3.85;;;1.80;;
10643;SDS011;5370;50.132;8.626;2022-08-03T09:50:57;5.65;;;2.08;;
10643;SDS011;5370;50.132;8.626;2022-08-03T09:53:24;3.33;;;1.98;;
10643;SDS011;5370;50.132;8.626;2022-08-03T09:58:21;8.48;;;1.85;;
10643;SDS011;5370;50.132;8.626;2022-08-03T10:03:28;3.35;;;1.70;;
10643;SDS011;5370;50.132;8.626;2022-08-03T10:05:55;5.85;;;2.03;;
10643;SDS011;5370;50.132;8.626;2022-08-03T10:08:22;6.20;;;1.80;;
10643;SDS011;5370;50.132;8.626;2022-08-03T10:10:49;10.43;;;1.92;;
10643;SDS011;5370;50.132;8.626;2022-08-03T10:13:18;5.55;;;2.10;;
10643;SDS011;5370;50.132;8.626;2022-08-03T10:15:44;2.17;;;1.55;;
10643;SDS011;5370;50.132;8.626;2022-08-03T10:18:10;3.08;;;1.45;;
10643;SDS011;5370;50.132;8.626;2022-08-03T10:20:39;5.80;;;1.73;;
10643;SDS011;5370;50.132;8.626;2022-08-03T10:23:12;2.75;;;1.88;;
10643;SDS011;5370;50.132;8.626;2022-08-03T10:25:40;6.70;;;2.20;;
10643;SDS011;5370;50.132;8.626;2022-08-03T10:28:10;8.93;;;2.08;;
10643;SDS011;5370;50.132;8.626;2022-08-03T10:30:40;3.50;;;1.92;;
10643;SDS011;5370;50.132;8.626;2022-08-03T10:33:14;3.90;;;1.83;;
10643;SDS011;5370;50.132;8.626;2022-08-03T10:35:43;9.43;;;2.13;;
10643;SDS011;5370;50.132;8.626;2022-08-03T10:38:16;2.85;;;2.28;;
10643;SDS011;5370;50.132;8.626;2022-08-03T10:40:44;4.05;;;1.85;;
10643;SDS011;5370;50.132;8.626;2022-08-03T10:43:11;2.03;;;1.70;;
10643;SDS011;5370;50.132;8.626;2022-08-03T10:45:45;2.67;;;1.80;;
10643;SDS011;5370;50.132;8.626;2022-08-03T10:48:11;3.60;;;1.88;;
10643;SDS011;5370;50.132;8.626;2022-08-03T10:50:37;2.75;;;1.63;;
10643;SDS011;5370;50.132;8.626;2022-08-03T10:53:05;2.92;;;1.90;;
10643;SDS011;5370;50.132;8.626;2022-08-03T10:55:38;2.05;;;1.50;;
10643;SDS011;5370;50.132;8.626;2022-08-03T11:01:08;4.45;;;1.83;;
10643;SDS011;5370;50.132;8.626;2022-08-03T11:06:20;6.90;;;1.63;;
10643;SDS011;5370;50.132;8.626;2022-08-03T11:08:48;2.55;;;1.70;;
10643;SDS011;5370;50.132;8.626;2022-08-03T11:11:35;2.03;;;1.83;;
10643;SDS011;5370;50.132;8.626;2022-08-03T11:14:08;1.48;;;1.38;;
10643;SDS011;5370;50.132;8.626;2022-08-03T11:17:08;1.98;;;1.42;;
10643;SDS011;5370;50.132;8.626;2022-08-03T11:19:44;4.20;;;1.50;;
10643;SDS011;5370;50.132;8.626;2022-08-03T11:22:11;2.55;;;1.60;;
10643;SDS011;5370;50.132;8.626;2022-08-03T11:35:11;1.88;;;1.73;;
10643;SDS011;5370;50.132;8.626;2022-08-03T11:46:01;2.03;;;1.52;;
10643;SDS011;5370;50.132;8.626;2022-08-03T11:50:59;4.80;;;1.88;;
10643;SDS011;5370;50.132;8.626;2022-08-03T11:53:25;5.38;;;1.95;;
10643;SDS011;5370;50.132;8.626;2022-08-03T11:55:52;5.88;;;1.67;;
10643;SDS011;5370;50.132;8.626;2022-08-03T11:58:21;5.85;;;2.00;;
10643;SDS011;5370;50.132;8.626;2022-08-03T12:00:48;6.00;;;1.50;;
10643;SDS011;5370;50.132;8.626;2022-08-03T12:03:15;5.18;;;1.40;;
10643;SDS011;5370;50.132;8.626;2022-08-03T12:08:13;1.80;;;1.30;;
10643;SDS011;5370;50.132;8.626;2022-08-03T12:10:44;2.65;;;1.65;;
10643;SDS011;5370;50.132;8.626;2022-08-03T12:13:12;1.77;;;1.67;;
10643;SDS011;5370;50.132;8.626;2022-08-03T12:15:38;3.28;;;1.52;;
10643;SDS011;5370;50.132;8.626;2022-08-03T12:18:11;4.68;;;1.50;;
10643;SDS011;5370;50.132;8.626;2022-08-03T12:20:40;1.92;;;1.80;;
10643;SDS011;5370;50.132;8.626;2022-08-03T12:23:07;3.28;;;1.83;;
10643;SDS011;5370;50.132;8.626;2022-08-03T12:25:34;1.52;;;1.35;;
10643;SDS011;5370;50.132;8.626;2022-08-03T12:30:40;1.65;;;1.55;;
10643;SDS011;5370;50.132;8.626;2022-08-03T12:33:13;2.08;;;1.42;;
10643;SDS011;5370;50.132;8.626;2022-08-03T12:35:44;2.85;;;1.48;;
10643;SDS011;5370;50.132;8.626;2022-08-03T12:38:36;1.27;;;1.17;;
10643;SDS011;5370;50.132;8.626;2022-08-03T12:41:07;2.30;;;1.63;;
10643;SDS011;5370;50.132;8.626;2022-08-03T12:43:48;3.05;;;1.65;;
10643;SDS011;5370;50.132;8.626;2022-08-03T12:46:17;5.00;;;1.50;;
10643;SDS011;5370;50.132;8.626;2022-08-03T12:51:33;2.08;;;1.77;;
10643;SDS011;5370;50.132;8.626;2022-08-03T12:54:01;1.63;;;1.30;;
10643;SDS011;5370;50.132;8.626;2022-08-03T12:56:28;3.35;;;1.33;;
10643;SDS011;5370;50.132;8.626;2022-08-03T12:58:53;3.33;;;1.20;;
10643;SDS011;5370;50.132;8.626;2022-08-03T13:01:19;2.47;;;1.23;;
10643;SDS011;5370;50.132;8.626;2022-08-03T13:03:49;2.20;;;1.35;;
10643;SDS011;5370;50.132;8.626;2022-08-03T13:06:22;4.43;;;1.58;;
10643;SDS011;5370;50.132;8.626;2022-08-03T13:08:49;1.83;;;1.45;;
10643;SDS011;5370;50.132;8.626;2022-08-03T13:11:26;1.45;;;1.10;;
10643;SDS011;5370;50.132;8.626;2022-08-03T13:13:52;4.90;;;1.20;;
10643;SDS011;5370;50.132;8.626;2022-08-03T13:16:19;4.75;;;1.45;;
10643;SDS011;5370;50.132;8.626;2022-08-03T13:18:46;2.60;;;1.70;;
10643;SDS011;5370;50.132;8.626;2022-08-03T13:21:13;2.30;;;1.38;;
10643;SDS011;5370;50.132;8.626;2022-08-03T13:23:40;1.65;;;1.55;;
10643;SDS011;5370;50.132;8.626;2022-08-03T13:26:06;4.20;;;1.60;;
10643;SDS011;5370;50.132;8.626;2022-08-03T13:28:32;1.48;;;1.38;;
10643;SDS011;5370;50.132;8.626;2022-08-03T13:30:58;1.83;;;1.40;;
10643;SDS011;5370;50.132;8.626;2022-08-03T13:33:25;3.85;;;1.77;;
10643;SDS011;5370;50.132;8.626;2022-08-03T13:35:52;2.08;;;1.55;;
10643;SDS011;5370;50.132;8.626;2022-08-03T13:38:17;2.40;;;1.27;;
10643;SDS011;5370;50.132;8.626;2022-08-03T13:40:43;5.03;;;1.77;;
10643;SDS011;5370;50.132;8.626;2022-08-03T13:43:08;2.53;;;1.70;;
10643;SDS011;5370;50.132;8.626;2022-08-03T13:45:34;1.52;;;1.20;;
10643;SDS011;5370;50.132;8.626;2022-08-03T13:48:00;1.63;;;1.52;;
10643;SDS011;5370;50.132;8.626;2022-08-03T13:50:26;2.72;;;1.50;;
10643;SDS011;5370;50.132;8.626;2022-08-03T13:52:52;3.10;;;1.42;;
10643;SDS011;5370;50.132;8.626;2022-08-03T13:55:17;2.13;;;1.50;;
10643;SDS011;5370;50.132;8.626;2022-08-03T13:57:43;1.38;;;1.15;;
10643;SDS011;5370;50.132;8.626;2022-08-03T14:00:09;1.40;;;1.30;;
10643;SDS011;5370;50.132;8.626;2022-08-03T14:02:35;1.98;;;1.40;;
10643;SDS011;5370;50.132;8.626;2022-08-03T14:05:00;1.65;;;1.45;;
10643;SDS011;5370;50.132;8.626;2022-08-03T14:07:26;1.80;;;1.55;;
10643;SDS011;5370;50.132;8.626;2022-08-03T14:09:52;1.65;;;1.55;;
10643;SDS011;5370;50.132;8.626;2022-08-03T14:12:17;1.73;;;1.40;;
10643;SDS011;5370;50.132;8.626;2022-08-03T14:14:43;1.45;;;1.35;;
10643;SDS011;5370;50.132;8.626;2022-08-03T14:17:08;1.33;;;1.10;;
10643;SDS011;5370;50.132;8.626;2022-08-03T14:19:34;3.08;;;1.60;;
10643;SDS011;5370;50.132;8.626;2022-08-03T14:22:00;1.80;;;1.58;;
10643;SDS011;5370;50.132;8.626;2022-08-03T14:24:25;1.98;;;1.63;;
10643;SDS011;5370;50.132;8.626;2022-08-03T14:26:51;1.60;;;1.25;;
10643;SDS011;5370;50.132;8.626;2022-08-03T14:29:16;2.40;;;1.30;;
10643;SDS011;5370;50.132;8.626;2022-08-03T14:31:42;1.40;;;1.30;;
10643;SDS011;5370;50.132;8.626;2022-08-03T14:34:07;2.35;;;1.58;;
10643;SDS011;5370;50.132;8.626;2022-08-03T14:36:33;1.77;;;1.40;;
10643;SDS011;5370;50.132;8.626;2022-08-03T14:38:58;4.90;;;1.30;;
10643;SDS011;5370;50.132;8.626;2022-08-03T14:41:24;1.70;;;1.02;;
10643;SDS011;5370;50.132;8.626;2022-08-03T14:43:49;2.25;;;1.45;;
10643;SDS011;5370;50.132;8.626;2022-08-03T14:46:15;2.22;;;1.42;;
10643;SDS011;5370;50.132;8.626;2022-08-03T14:48:41;2.28;;;1.33;;
10643;SDS011;5370;50.132;8.626;2022-08-03T14:51:06;1.52;;;1.40;;
10643;SDS011;5370;50.132;8.626;2022-08-03T14:53:33;1.83;;;1.40;;
10643;SDS011;5370;50.132;8.626;2022-08-03T14:55:58;3.60;;;1.40;;
10643;SDS011;5370;50.132;8.626;2022-08-03T14:58:24;3.08;;;1.20;;
10643;SDS011;5370;50.132;8.626;2022-08-03T15:00:51;3.67;;;1.40;;
10643;SDS011;5370;50.132;8.626;2022-08-03T15:03:18;3.45;;;1.40;;
10643;SDS011;5370;50.132;8.626;2022-08-03T15:05:47;3.60;;;1.60;;
10643;SDS011;5370;50.132;8.626;2022-08-03T15:08:13;1.30;;;1.20;;
10643;SDS011;5370;50.132;8.626;2022-08-03T15:10:38;2.60;;;1.20;;
10643;SDS011;5370;50.132;8.626;2022-08-03T15:13:04;1.67;;;1.42;;
10643;SDS011;5370;50.132;8.626;2022-08-03T15:15:30;3.08;;;1.25;;
10643;SDS011;5370;50.132;8.626;2022-08-03T15:17:55;2.20;;;1.20;;
10643;SDS011;5370;50.132;8.626;2022-08-03T15:20:21;3.78;;;1.38;;
10643;SDS011;5370;50.132;8.626;2022-08-03T15:22:46;2.75;;;1.30;;
10643;SDS011;5370;50.132;8.626;2022-08-03T15:25:12;1.33;;;1.23;;
10643;SDS011;5370;50.132;8.626;2022-08-03T15:27:38;1.77;;;1.38;;
10643;SDS011;5370;50.132;8.626;2022-08-03T15:30:03;3.22;;;1.30;;
10643;SDS011;5370;50.132;8.626;2022-08-03T15:32:30;1.40;;;1.30;;
10643;SDS011;5370;50.132;8.626;2022-08-03T15:34:57;1.48;;;1.20;;
10643;SDS011;5370;50.132;8.626;2022-08-03T15:37:23;1.02;;;1.02;;
10643;SDS011;5370;50.132;8.626;2022-08-03T15:39:49;1.42;;;1.33;;
10643;SDS011;5370;50.132;8.626;2022-08-03T15:42:15;1.20;;;1.13;;
10643;SDS011;5370;50.132;8.626;2022-08-03T15:44:40;1.38;;;1.27;;
10643;SDS011;5370;50.132;8.626;2022-08-03T15:47:06;1.77;;;1.13;;
10643;SDS011;5370;50.132;8.626;2022-08-03T15:49:31;1.20;;;1.10;;
10643;SDS011;5370;50.132;8.626;2022-08-03T15:51:57;3.72;;;1.15;;
10643;SDS011;5370;50.132;8.626;2022-08-03T15:54:23;1.27;;;1.20;;
10643;SDS011;5370;50.132;8.626;2022-08-03T15:56:48;3.30;;;1.20;;